Time;durP1;ratioP1;P1;durP2;ratioP2;P2;SDS_P1;SDS_P2;PMS_P1;PMS_P2;Temp;Humidity;BMP_temperature;BMP_pressure;BME280_temperature;BME280_humidity;BME280_pressure;Samples;Min_cycle;Max_cycle;Signal;HPM_P1;HPM_P2
2021/10/22 00:02:11;;;;;;;9.35;1.42;;;8.40;96.40;;;;;;5025421;28;20075;-81
2021/10/22 00:04:36;;;;;;;11.07;2.40;;;8.30;96.20;;;;;;5041678;28;20035;-80
2021/10/22 00:07:03;;;;;;;7.32;1.92;;;8.30;96.80;;;;;;5027639;28;20486;-81
2021/10/22 00:09:29;;;;;;;10.35;2.50;;;8.20;96.30;;;;;;5028681;28;20090;-80
2021/10/22 00:11:54;;;;;;;9.00;1.85;;;8.30;96.50;;;;;;5029645;28;20037;-80
2021/10/22 00:14:20;;;;;;;6.70;2.30;;;8.20;96.60;;;;;;5030203;28;20056;-79
2021/10/22 00:16:45;;;;;;;5.90;1.38;;;8.30;96.70;;;;;;5028709;28;20049;-80
2021/10/22 00:19:11;;;;;;;11.20;2.53;;;8.30;96.60;;;;;;5028372;28;20041;-80
2021/10/22 00:21:37;;;;;;;7.00;1.10;;;8.30;96.50;;;;;;5029060;28;20044;-80
2021/10/22 00:24:03;;;;;;;8.45;1.85;;;8.20;96.70;;;;;;5023033;28;20030;-80
2021/10/22 00:26:31;;;;;;;7.95;1.60;;;8.30;96.60;;;;;;5033741;28;20026;-79
2021/10/22 00:28:56;;;;;;;7.32;1.67;;;8.20;96.70;;;;;;5033898;28;20033;-79
2021/10/22 00:31:22;;;;;;;10.40;1.73;;;8.20;96.80;;;;;;5037409;28;20481;-79
2021/10/22 00:33:47;;;;;;;5.93;1.30;;;8.20;96.90;;;;;;5027027;28;20048;-79
2021/10/22 00:36:13;;;;;;;5.45;1.27;;;8.20;96.90;;;;;;5027617;28;20532;-80
2021/10/22 00:38:38;;;;;;;10.55;1.45;;;8.10;97.00;;;;;;5028453;28;20057;-79
2021/10/22 00:41:05;;;;;;;12.40;1.67;;;8.20;97.10;;;;;;5026497;28;20029;-79
2021/10/22 00:43:32;;;;;;;9.13;1.67;;;8.20;97.10;;;;;;5028510;28;20036;-79
2021/10/22 00:45:59;;;;;;;6.20;1.63;;;8.20;97.10;;;;;;5030554;28;20028;-79
2021/10/22 00:48:25;;;;;;;2.72;1.00;;;8.20;97.10;;;;;;5026546;28;20036;-79
2021/10/22 00:50:59;;;;;;;6.65;1.65;;;8.20;97.10;;;;;;5025787;28;20049;-80
2021/10/22 00:53:26;;;;;;;6.53;2.22;;;8.20;97.10;;;;;;5028086;28;20049;-79
2021/10/22 00:55:52;;;;;;;8.45;2.13;;;8.20;96.90;;;;;;5029193;28;20029;-80
2021/10/22 00:58:18;;;;;;;6.78;1.70;;;8.20;96.90;;;;;;5024904;28;20471;-80
2021/10/22 01:00:43;;;;;;;5.72;1.63;;;8.20;96.90;;;;;;5027793;28;20616;-80
2021/10/22 01:03:09;;;;;;;8.15;1.70;;;8.20;96.80;;;;;;5027571;28;20038;-79
2021/10/22 01:05:35;;;;;;;6.85;1.98;;;8.20;96.60;;;;;;5026534;28;20078;-78
2021/10/22 01:08:03;;;;;;;8.15;1.63;;;8.20;96.70;;;;;;5028518;28;20040;-78
2021/10/22 01:10:28;;;;;;;8.07;1.50;;;8.20;96.50;;;;;;5024431;28;20084;-79
2021/10/22 01:12:56;;;;;;;4.43;1.40;;;8.10;96.60;;;;;;5027288;28;20504;-78
2021/10/22 01:15:21;;;;;;;5.18;1.20;;;8.10;96.60;;;;;;5027369;28;20041;-79
2021/10/22 01:17:48;;;;;;;10.95;2.25;;;8.10;96.50;;;;;;5025522;28;20043;-78
2021/10/22 01:20:15;;;;;;;8.70;2.22;;;8.10;96.50;;;;;;5031820;28;20534;-80
2021/10/22 01:22:42;;;;;;;9.57;1.60;;;8.10;96.20;;;;;;5031256;28;20035;-79
2021/10/22 01:25:10;;;;;;;9.05;1.77;;;8.10;96.20;;;;;;5020223;28;20022;-80
2021/10/22 01:27:36;;;;;;;9.85;1.80;;;8.10;96.40;;;;;;5015954;28;20040;-81
2021/10/22 01:30:04;;;;;;;7.22;1.90;;;8.10;96.40;;;;;;5030138;28;20029;-80
2021/10/22 01:32:30;;;;;;;7.75;1.80;;;8.10;96.40;;;;;;5030579;28;20104;-79
2021/10/22 01:34:56;;;;;;;6.45;1.88;;;8.10;96.50;;;;;;5031630;28;20135;-80
2021/10/22 01:37:21;;;;;;;7.18;1.77;;;8.00;96.80;;;;;;5042184;28;20658;-79
2021/10/22 01:39:47;;;;;;;11.65;1.83;;;8.00;96.50;;;;;;5031015;28;20040;-80
2021/10/22 01:42:12;;;;;;;6.97;1.45;;;8.00;96.90;;;;;;5026643;28;20032;-80
2021/10/22 01:44:38;;;;;;;6.95;2.00;;;8.10;96.60;;;;;;5033885;28;20025;-80
2021/10/22 01:47:04;;;;;;;12.82;2.60;;;8.00;96.70;;;;;;5037947;28;20030;-80
2021/10/22 01:49:29;;;;;;;3.95;1.80;;;8.00;96.80;;;;;;5043655;28;20431;-79
2021/10/22 01:51:55;;;;;;;9.70;1.85;;;8.00;96.80;;;;;;5035818;28;20072;-78
2021/10/22 01:54:21;;;;;;;16.55;2.15;;;8.00;96.80;;;;;;5039152;28;20034;-79
2021/10/22 01:56:47;;;;;;;8.10;3.08;;;8.00;96.80;;;;;;5021141;28;20029;-79
2021/10/22 01:59:12;;;;;;;9.40;2.05;;;8.00;96.80;;;;;;5025003;28;20383;-79
2021/10/22 02:01:38;;;;;;;7.45;2.13;;;8.00;96.80;;;;;;5026193;28;20041;-79
2021/10/22 02:04:03;;;;;;;8.25;1.90;;;7.90;96.80;;;;;;5029749;28;20367;-79
2021/10/22 02:06:29;;;;;;;11.38;1.73;;;8.00;96.90;;;;;;5033053;28;20037;-79
2021/10/22 02:08:54;;;;;;;12.18;1.60;;;8.00;96.80;;;;;;5039553;28;20025;-79
2021/10/22 02:11:20;;;;;;;7.65;1.85;;;8.00;96.80;;;;;;5028302;28;20033;-79
2021/10/22 02:13:46;;;;;;;9.00;1.85;;;8.00;96.70;;;;;;5031754;28;20036;-80
2021/10/22 02:16:11;;;;;;;11.30;2.15;;;8.00;96.80;;;;;;5028993;28;20036;-79
2021/10/22 02:18:37;;;;;;;10.10;2.22;;;8.00;96.80;;;;;;5028055;28;20037;-80
2021/10/22 02:21:02;;;;;;;8.35;2.30;;;8.10;96.80;;;;;;5026714;28;20490;-80
2021/10/22 02:23:28;;;;;;;7.78;3.55;;;8.10;96.70;;;;;;5030101;28;20099;-81
2021/10/22 02:25:53;;;;;;;9.10;1.83;;;8.10;96.70;;;;;;5018095;28;20026;-81
2021/10/22 02:28:19;;;;;;;9.32;1.98;;;8.10;96.60;;;;;;5028845;28;20036;-80
2021/10/22 02:30:45;;;;;;;12.85;2.28;;;8.10;96.60;;;;;;5044347;28;20058;-80
2021/10/22 02:33:11;;;;;;;4.72;1.38;;;8.10;96.80;;;;;;5026589;28;20029;-81
2021/10/22 02:35:38;;;;;;;9.65;1.60;;;8.10;96.70;;;;;;5044236;28;20470;-80
2021/10/22 02:38:04;;;;;;;4.95;1.58;;;8.10;96.70;;;;;;5041784;28;20029;-80
2021/10/22 02:40:29;;;;;;;7.38;1.73;;;8.00;96.70;;;;;;5025865;28;20089;-80
2021/10/22 02:42:55;;;;;;;12.43;1.52;;;8.10;96.80;;;;;;5043258;28;20110;-80
2021/10/22 02:45:20;;;;;;;8.88;1.67;;;8.00;96.80;;;;;;5041159;28;20030;-80
2021/10/22 02:47:46;;;;;;;9.45;2.13;;;7.90;96.90;;;;;;5036419;28;20042;-80
2021/10/22 02:50:14;;;;;;;9.43;1.30;;;7.90;97.00;;;;;;5029978;28;20033;-79
2021/10/22 02:52:39;;;;;;;10.02;1.77;;;7.90;97.00;;;;;;5031768;28;20038;-79
2021/10/22 02:55:05;;;;;;;11.73;2.08;;;7.90;97.00;;;;;;5022926;28;20095;-79
2021/10/22 02:57:31;;;;;;;8.70;1.48;;;7.90;97.00;;;;;;5014455;28;20045;-79
2021/10/22 02:59:57;;;;;;;9.18;2.08;;;7.90;97.10;;;;;;5024949;28;20115;-79
2021/10/22 03:02:22;;;;;;;7.38;2.03;;;7.90;97.00;;;;;;5035499;28;20533;-79
2021/10/22 03:04:48;;;;;;;9.85;1.60;;;7.90;97.10;;;;;;5033662;28;20029;-79
2021/10/22 03:07:13;;;;;;;7.20;1.27;;;7.90;97.20;;;;;;5038477;28;20029;-79
2021/10/22 03:09:39;;;;;;;10.00;1.70;;;7.80;97.10;;;;;;5031758;28;20025;-80
2021/10/22 03:12:04;;;;;;;9.88;2.28;;;7.80;97.30;;;;;;5025444;28;20497;-80
2021/10/22 03:14:30;;;;;;;8.18;1.63;;;7.80;97.30;;;;;;5026563;28;20040;-80
2021/10/22 03:16:55;;;;;;;5.88;1.35;;;7.80;97.30;;;;;;5028303;28;20087;-79
2021/10/22 03:19:21;;;;;;;7.43;2.22;;;7.70;97.30;;;;;;5028550;28;20413;-79
2021/10/22 03:21:46;;;;;;;8.65;2.00;;;7.70;97.20;;;;;;5037104;28;20048;-79
2021/10/22 03:24:12;;;;;;;12.65;2.00;;;7.70;97.20;;;;;;5028419;28;20482;-80
2021/10/22 03:26:38;;;;;;;8.13;1.38;;;7.70;97.40;;;;;;5035551;28;20036;-81
2021/10/22 03:29:03;;;;;;;8.65;1.42;;;7.70;97.40;;;;;;5028276;28;20052;-80
2021/10/22 03:31:29;;;;;;;8.43;3.42;;;7.60;97.40;;;;;;5040158;28;20124;-80
2021/10/22 03:33:54;;;;;;;12.05;2.58;;;7.60;97.50;;;;;;5037940;28;20526;-79
2021/10/22 03:36:20;;;;;;;10.27;1.73;;;7.60;97.50;;;;;;5041233;28;20119;-79
2021/10/22 03:38:46;;;;;;;10.48;1.70;;;7.60;97.40;;;;;;5026540;28;20038;-80
2021/10/22 03:41:11;;;;;;;7.75;1.73;;;7.60;97.80;;;;;;5018639;28;20044;-78
2021/10/22 03:43:37;;;;;;;7.15;1.88;;;7.60;97.50;;;;;;5036781;28;20104;-80
2021/10/22 03:46:04;;;;;;;10.45;2.42;;;7.60;97.40;;;;;;5042264;28;20119;-78
2021/10/22 03:48:29;;;;;;;8.00;1.60;;;7.60;97.50;;;;;;5030440;28;20040;-79
2021/10/22 03:50:55;;;;;;;8.73;1.83;;;7.60;97.50;;;;;;5027903;28;20041;-79
2021/10/22 03:53:20;;;;;;;4.97;1.35;;;7.60;97.30;;;;;;5040263;28;20055;-81
2021/10/22 03:55:46;;;;;;;10.82;1.85;;;7.60;97.40;;;;;;5020824;28;20037;-81
2021/10/22 03:58:12;;;;;;;4.97;1.60;;;7.60;97.50;;;;;;5016440;28;20105;-80
2021/10/22 04:00:37;;;;;;;9.02;1.52;;;7.60;97.60;;;;;;5030290;28;20112;-79
2021/10/22 04:03:04;;;;;;;8.05;1.50;;;7.60;97.40;;;;;;5024151;28;20040;-79
2021/10/22 04:05:30;;;;;;;8.95;1.80;;;7.50;97.40;;;;;;5023965;28;20034;-82
2021/10/22 04:07:57;;;;;;;6.90;1.65;;;7.40;97.70;;;;;;5026054;28;20025;-80
2021/10/22 04:10:22;;;;;;;8.77;1.60;;;7.40;97.60;;;;;;5025581;28;20030;-80
2021/10/22 04:12:48;;;;;;;7.07;2.08;;;7.40;97.70;;;;;;5027202;28;20056;-80
2021/10/22 04:15:14;;;;;;;4.82;1.45;;;7.40;97.70;;;;;;5029592;28;20655;-81
2021/10/22 04:17:39;;;;;;;6.70;1.38;;;7.40;97.70;;;;;;5039367;28;21614;-80
2021/10/22 04:20:06;;;;;;;4.72;1.88;;;7.40;97.60;;;;;;5019837;28;20086;-79
2021/10/22 04:22:32;;;;;;;11.00;2.25;;;7.40;97.70;;;;;;5026531;28;20513;-80
2021/10/22 04:24:58;;;;;;;10.35;1.88;;;7.40;97.70;;;;;;5020017;28;20025;-80
2021/10/22 04:27:24;;;;;;;3.67;1.55;;;7.40;97.70;;;;;;5016141;28;20022;-79
2021/10/22 04:29:49;;;;;;;11.65;2.25;;;7.40;97.70;;;;;;5017478;28;20047;-80
2021/10/22 04:32:15;;;;;;;11.15;2.13;;;7.40;97.70;;;;;;5028548;28;20063;-78
2021/10/22 04:34:40;;;;;;;10.65;2.58;;;7.30;97.70;;;;;;5023570;28;20026;-80
2021/10/22 04:42:43;;;;;;;11.00;1.35;;;7.40;97.50;;;;;;5031842;28;20456;-79
2021/10/22 04:45:10;;;;;;;10.07;1.80;;;7.40;97.60;;;;;;5027402;28;20034;-79
2021/10/22 04:47:36;;;;;;;10.48;1.95;;;7.40;97.40;;;;;;5031504;28;20378;-79
2021/10/22 04:50:03;;;;;;;4.60;1.25;;;7.40;97.40;;;;;;5027760;28;20030;-79
2021/10/22 04:52:28;;;;;;;8.98;1.73;;;7.40;97.60;;;;;;5010084;28;20034;-79
2021/10/22 04:54:54;;;;;;;7.20;1.92;;;7.40;97.60;;;;;;5044632;28;20393;-79
2021/10/22 04:57:19;;;;;;;4.55;1.73;;;7.40;97.40;;;;;;5027107;28;20042;-80
2021/10/22 04:59:45;;;;;;;8.45;2.13;;;7.40;97.40;;;;;;5028265;28;20511;-80
2021/10/22 05:02:10;;;;;;;3.80;1.40;;;7.40;97.50;;;;;;5039403;28;20048;-78
2021/10/22 05:04:36;;;;;;;11.68;1.88;;;7.40;97.50;;;;;;5033843;28;20425;-80
2021/10/22 05:07:01;;;;;;;6.88;1.90;;;7.40;97.50;;;;;;5023668;28;20079;-79
2021/10/22 05:09:27;;;;;;;9.25;1.98;;;7.40;97.50;;;;;;5030511;28;20045;-80
2021/10/22 05:11:53;;;;;;;13.10;2.50;;;7.50;97.30;;;;;;5023822;28;20042;-80
2021/10/22 05:14:19;;;;;;;10.90;1.63;;;7.50;97.30;;;;;;5032209;28;20129;-79
2021/10/22 05:16:44;;;;;;;8.82;1.60;;;7.40;97.50;;;;;;5024882;28;20183;-80
2021/10/22 05:19:10;;;;;;;8.38;2.15;;;7.40;97.40;;;;;;5031252;28;20053;-79
2021/10/22 05:21:35;;;;;;;7.20;2.08;;;7.50;97.40;;;;;;5031687;28;20124;-79
2021/10/22 05:24:01;;;;;;;5.10;1.95;;;7.40;97.40;;;;;;5030840;28;20030;-80
2021/10/22 05:26:26;;;;;;;6.18;1.98;;;7.40;97.40;;;;;;5032147;28;20038;-80
2021/10/22 05:28:51;;;;;;;7.43;2.58;;;7.30;97.40;;;;;;5031279;28;20079;-79
2021/10/22 05:31:17;;;;;;;8.70;2.40;;;7.30;97.50;;;;;;5031965;28;20095;-80
2021/10/22 05:33:43;;;;;;;9.27;2.05;;;7.40;97.40;;;;;;5032780;28;20033;-79
2021/10/22 05:36:08;;;;;;;8.35;2.50;;;7.40;97.50;;;;;;5030557;28;20052;-79
2021/10/22 05:38:34;;;;;;;5.97;1.70;;;7.30;97.60;;;;;;5030099;28;20022;-81
2021/10/22 05:40:59;;;;;;;6.85;2.28;;;7.30;97.60;;;;;;5029958;28;20037;-79
2021/10/22 05:43:24;;;;;;;8.05;2.08;;;7.30;97.60;;;;;;5032312;28;20544;-79
2021/10/22 05:45:50;;;;;;;8.10;3.20;;;7.30;97.70;;;;;;5032048;28;20025;-80
2021/10/22 05:48:16;;;;;;;9.07;2.42;;;7.30;97.60;;;;;;5031592;28;20049;-79
2021/10/22 05:50:42;;;;;;;6.03;1.95;;;7.30;97.50;;;;;;5030376;28;20473;-80
2021/10/22 05:53:07;;;;;;;8.15;2.28;;;7.30;97.50;;;;;;5031628;28;20036;-80
2021/10/22 05:55:33;;;;;;;7.57;2.33;;;7.30;97.60;;;;;;5031649;28;20038;-80
2021/10/22 05:57:59;;;;;;;11.35;2.40;;;7.30;97.50;;;;;;5030779;28;20049;-81
2021/10/22 06:00:24;;;;;;;9.32;2.45;;;7.30;97.60;;;;;;5032077;28;20051;-79
2021/10/22 06:02:55;;;;;;;12.60;4.25;;;7.40;97.50;;;;;;5031429;28;20116;-79
2021/10/22 06:05:21;;;;;;;5.85;2.00;;;7.40;97.40;;;;;;5031703;28;20628;-79
2021/10/22 06:07:46;;;;;;;3.25;2.10;;;7.30;97.80;;;;;;5031546;28;20117;-79
2021/10/22 06:10:12;;;;;;;8.55;2.08;;;7.20;97.60;;;;;;5031685;28;20096;-80
2021/10/22 06:12:37;;;;;;;11.88;2.47;;;7.20;97.60;;;;;;5031429;28;20040;-79
2021/10/22 06:15:04;;;;;;;6.70;2.10;;;7.20;97.80;;;;;;5030956;28;20025;-79
2021/10/22 06:17:29;;;;;;;14.88;3.10;;;7.20;97.80;;;;;;5030746;28;20025;-79
2021/10/22 06:19:57;;;;;;;7.22;2.20;;;7.10;97.90;;;;;;5031121;28;20030;-79
2021/10/22 06:22:51;;;;;;;9.75;2.00;;;7.20;97.90;;;;;;5030477;28;20478;-79
2021/10/22 06:25:18;;;;;;;7.20;2.58;;;7.30;97.70;;;;;;5029971;28;20037;-80
2021/10/22 06:27:43;;;;;;;8.13;2.60;;;7.30;97.60;;;;;;5029792;28;20025;-81
2021/10/22 06:30:09;;;;;;;10.32;2.30;;;7.30;97.50;;;;;;5030232;28;20052;-80
2021/10/22 06:32:35;;;;;;;9.30;2.22;;;7.40;97.50;;;;;;5028310;28;20375;-79
2021/10/22 06:35:00;;;;;;;5.88;2.30;;;7.40;97.50;;;;;;5030209;28;20079;-80
2021/10/22 06:37:26;;;;;;;6.15;2.20;;;7.40;97.50;;;;;;5029552;28;20537;-79
2021/10/22 06:39:51;;;;;;;6.50;2.30;;;7.40;97.40;;;;;;5030394;28;20041;-80
2021/10/22 06:42:17;;;;;;;9.45;2.53;;;7.50;97.30;;;;;;5028370;28;20144;-80
2021/10/22 06:44:42;;;;;;;5.57;1.80;;;7.50;97.20;;;;;;5030287;28;20528;-80
2021/10/22 06:47:08;;;;;;;9.82;2.70;;;7.60;97.10;;;;;;5030006;28;20112;-79
2021/10/22 06:49:33;;;;;;;18.60;2.60;;;7.60;97.00;;;;;;5027891;28;20393;-80
2021/10/22 06:51:59;;;;;;;4.57;1.67;;;7.60;97.00;;;;;;5029821;28;20045;-81
2021/10/22 06:54:24;;;;;;;9.02;2.63;;;7.60;97.20;;;;;;5028123;28;20553;-80
2021/10/22 06:56:50;;;;;;;10.82;2.55;;;7.60;97.00;;;;;;5029800;28;20025;-78
2021/10/22 06:59:16;;;;;;;11.07;2.15;;;7.70;96.90;;;;;;5028953;28;20029;-79
2021/10/22 07:01:41;;;;;;;9.85;3.08;;;7.60;97.10;;;;;;5029340;28;20037;-79
2021/10/22 07:04:09;;;;;;;11.27;2.38;;;7.70;96.80;;;;;;5029988;28;20030;-78
2021/10/22 07:09:19;;;;;;;5.63;2.20;;;7.80;96.80;;;;;;5029033;28;20032;-78
2021/10/22 07:11:45;;;;;;;5.78;2.28;;;7.80;96.60;;;;;;5029181;28;20029;-81
2021/10/22 07:14:10;;;;;;;7.47;2.58;;;7.80;96.50;;;;;;5029519;28;20104;-80
2021/10/22 07:16:38;;;;;;;14.18;2.72;;;7.80;96.40;;;;;;5028622;28;20049;-78
2021/10/22 07:19:04;;;;;;;10.32;2.42;;;7.80;96.60;;;;;;5027643;28;20060;-78
2021/10/22 07:21:30;;;;;;;10.32;3.28;;;7.90;96.50;;;;;;4993688;28;990533;-79
2021/10/22 07:23:58;;;;;;;8.48;2.20;;;7.80;96.20;;;;;;5032837;28;20025;-78
2021/10/22 07:26:23;;;;;;;5.95;2.47;;;7.90;96.40;;;;;;5030033;28;20026;-79
2021/10/22 07:28:49;;;;;;;8.45;2.53;;;7.90;96.30;;;;;;5027985;28;20064;-79
2021/10/22 07:31:14;;;;;;;11.02;2.08;;;7.90;96.20;;;;;;5029280;28;20026;-77
2021/10/22 07:33:43;;;;;;;3.97;1.85;;;8.00;96.40;;;;;;5029924;28;20164;-79
2021/10/22 07:36:13;;;;;;;5.47;1.70;;;8.00;96.20;;;;;;5030043;28;20509;-79
2021/10/22 07:38:41;;;;;;;7.90;2.22;;;8.00;95.80;;;;;;5029605;28;20104;-79
2021/10/22 07:41:06;;;;;;;7.82;2.67;;;8.10;95.70;;;;;;5029532;28;20497;-80
2021/10/22 07:43:33;;;;;;;9.88;2.05;;;8.20;95.70;;;;;;5029977;28;20029;-79
2021/10/22 07:46:00;;;;;;;6.97;1.88;;;8.20;95.90;;;;;;5029854;28;20351;-79
2021/10/22 07:48:25;;;;;;;7.55;2.20;;;8.20;95.70;;;;;;5027736;28;20397;-78
2021/10/22 07:50:51;;;;;;;10.15;1.98;;;8.30;95.70;;;;;;5029176;28;20029;-79
2021/10/22 07:53:17;;;;;;;12.25;2.88;;;8.40;95.50;;;;;;5030285;28;20045;-79
2021/10/22 07:55:44;;;;;;;9.50;2.28;;;8.40;95.40;;;;;;5029695;28;20034;-79
2021/10/22 07:58:10;;;;;;;7.28;1.50;;;8.40;95.30;;;;;;5029162;28;20025;-79
2021/10/22 08:00:35;;;;;;;9.63;2.80;;;8.50;95.10;;;;;;5028549;28;20029;-79
2021/10/22 08:03:01;;;;;;;8.05;2.22;;;8.50;95.10;;;;;;5029372;28;20460;-79
2021/10/22 08:05:27;;;;;;;5.57;2.08;;;8.60;94.80;;;;;;5044753;28;20041;-79
2021/10/22 08:07:52;;;;;;;8.45;1.48;;;8.70;94.70;;;;;;5028333;28;20609;-79
2021/10/22 08:10:18;;;;;;;9.90;2.00;;;8.70;94.60;;;;;;5029387;28;20044;-79
2021/10/22 08:12:46;;;;;;;10.77;2.40;;;8.70;94.30;;;;;;5029363;28;20030;-81
2021/10/22 08:15:12;;;;;;;8.82;1.73;;;8.70;94.10;;;;;;5028388;28;20478;-82
2021/10/22 08:17:38;;;;;;;3.28;1.23;;;8.80;94.10;;;;;;5028905;28;20095;-80
2021/10/22 08:20:07;;;;;;;4.78;1.40;;;8.90;94.20;;;;;;5029118;28;20038;-82
2021/10/22 08:22:32;;;;;;;8.27;2.00;;;9.00;93.80;;;;;;5028896;28;20060;-81
2021/10/22 08:25:07;;;;;;;9.80;2.03;;;9.10;93.50;;;;;;5044710;28;20464;-79
2021/10/22 08:27:37;;;;;;;9.52;2.13;;;9.10;93.30;;;;;;5028544;28;20591;-79
2021/10/22 08:30:04;;;;;;;6.85;1.85;;;9.10;93.30;;;;;;5031880;28;20592;-79
2021/10/22 08:32:31;;;;;;;7.95;2.10;;;9.20;93.20;;;;;;5033111;28;20560;-79
2021/10/22 08:34:57;;;;;;;6.10;2.53;;;9.30;92.60;;;;;;5034089;28;20474;-79
2021/10/22 08:37:23;;;;;;;7.07;1.85;;;9.30;92.70;;;;;;5032833;28;20076;-79
2021/10/22 08:39:50;;;;;;;4.45;1.60;;;9.40;92.30;;;;;;5032966;28;20033;-80
2021/10/22 08:42:22;;;;;;;4.13;1.50;;;9.40;92.10;;;;;;5032817;28;20376;-79
2021/10/22 08:44:52;;;;;;;3.43;1.13;;;9.50;91.90;;;;;;5033101;28;20067;-80
2021/10/22 08:47:25;;;;;;;8.15;2.08;;;9.50;91.80;;;;;;5033121;28;20071;-80
2021/10/22 08:49:52;;;;;;;6.43;1.80;;;9.60;92.00;;;;;;5031621;28;20029;-80
2021/10/22 08:52:18;;;;;;;4.85;1.73;;;9.70;91.90;;;;;;5032401;28;20033;-80
2021/10/22 08:54:43;;;;;;;6.28;1.50;;;9.80;91.30;;;;;;5033526;28;20474;-80
2021/10/22 08:57:09;;;;;;;3.60;1.63;;;9.90;91.20;;;;;;5033559;28;20026;-80
2021/10/22 08:59:35;;;;;;;4.13;1.40;;;9.90;90.60;;;;;;5031984;28;20112;-78
2021/10/22 09:02:16;;;;;;;3.85;1.10;;;9.90;91.00;;;;;;5032521;28;20033;-79
2021/10/22 09:04:46;;;;;;;6.47;2.13;;;10.00;90.90;;;;;;5031200;28;20613;-79
2021/10/22 09:07:17;;;;;;;7.82;1.50;;;10.10;90.70;;;;;;5032894;28;20032;-79
2021/10/22 09:09:44;;;;;;;2.53;0.90;;;10.20;90.70;;;;;;5032380;28;20034;-80
2021/10/22 09:12:11;;;;;;;8.00;1.73;;;10.30;90.60;;;;;;5032297;28;20033;-79
2021/10/22 09:14:38;;;;;;;10.50;2.08;;;10.40;90.00;;;;;;5032865;28;20041;-80
2021/10/22 09:17:11;;;;;;;3.95;1.23;;;10.50;90.40;;;;;;5032342;28;20017;-80
2021/10/22 09:19:41;;;;;;;9.40;1.30;;;10.70;90.30;;;;;;5031862;28;20037;-80
2021/10/22 09:22:22;;;;;;;4.35;1.08;;;10.80;90.00;;;;;;5030649;28;20049;-79
2021/10/22 09:24:55;;;;;;;8.77;1.67;;;11.10;88.60;;;;;;5032669;28;20440;-80
2021/10/22 09:27:38;;;;;;;10.98;1.55;;;11.10;88.80;;;;;;5037559;28;20044;-80
2021/10/22 09:30:06;;;;;;;7.05;1.77;;;11.10;89.10;;;;;;5052312;28;20044;-79
2021/10/22 09:32:32;;;;;;;5.03;1.23;;;11.20;89.20;;;;;;5051337;28;20120;-80
2021/10/22 09:34:58;;;;;;;4.00;1.63;;;11.20;88.50;;;;;;5052480;28;20116;-80
2021/10/22 09:37:37;;;;;;;5.35;1.23;;;11.20;87.80;;;;;;5052030;28;20025;-79
2021/10/22 09:40:04;;;;;;;5.85;1.40;;;11.10;88.30;;;;;;5051211;28;20025;-81
2021/10/22 09:42:29;;;;;;;5.88;1.63;;;11.10;87.80;;;;;;5052120;28;20033;-78
2021/10/22 09:44:55;;;;;;;9.75;2.30;;;11.10;88.90;;;;;;5052267;28;20108;-79
2021/10/22 09:47:21;;;;;;;4.28;1.00;;;11.00;88.40;;;;;;5050400;28;20025;-80
2021/10/22 09:49:52;;;;;;;3.92;1.45;;;10.90;88.50;;;;;;5051434;28;20390;-79
2021/10/22 09:52:25;;;;;;;4.47;1.23;;;10.90;87.90;;;;;;5051857;28;20413;-79
2021/10/22 09:55:12;;;;;;;6.38;1.15;;;10.90;89.10;;;;;;5051445;28;20387;-79
2021/10/22 09:57:40;;;;;;;7.90;1.55;;;11.00;89.10;;;;;;5050286;28;20028;-79
2021/10/22 10:00:19;;;;;;;8.65;1.20;;;11.00;88.20;;;;;;5051841;28;20035;-81
2021/10/22 10:02:45;;;;;;;5.97;1.58;;;11.10;88.60;;;;;;5051376;28;20032;-81
2021/10/22 10:05:12;;;;;;;6.65;1.55;;;11.20;88.50;;;;;;5052138;28;20028;-80
2021/10/22 10:07:46;;;;;;;7.50;1.35;;;11.30;88.30;;;;;;5051061;28;20033;-81
2021/10/22 10:10:13;;;;;;;7.60;1.50;;;11.40;87.90;;;;;;5051834;28;20111;-81
2021/10/22 10:12:39;;;;;;;4.78;1.30;;;11.30;88.10;;;;;;5051173;28;20178;-79
2021/10/22 10:15:06;;;;;;;4.00;1.45;;;11.30;88.50;;;;;;5051390;28;20139;-81
2021/10/22 10:17:38;;;;;;;10.02;1.40;;;11.30;88.10;;;;;;5050901;28;20112;-79
2021/10/22 10:20:05;;;;;;;10.75;1.95;;;11.30;88.10;;;;;;5050150;28;20025;-81
2021/10/22 10:22:32;;;;;;;5.50;1.30;;;11.40;87.40;;;;;;5051273;28;20075;-78
2021/10/22 10:25:05;;;;;;;5.20;1.35;;;11.50;87.10;;;;;;5051509;28;20033;-79
2021/10/22 10:27:43;;;;;;;5.72;1.52;;;11.60;86.80;;;;;;5051357;28;20147;-81
2021/10/22 10:30:13;;;;;;;3.13;1.15;;;11.60;86.50;;;;;;5051153;28;20029;-81
2021/10/22 10:32:42;;;;;;;3.58;1.23;;;11.50;86.90;;;;;;5065853;28;20128;-80
2021/10/22 10:35:13;;;;;;;6.85;1.33;;;11.50;86.80;;;;;;5049487;28;20696;-78
2021/10/22 10:37:48;;;;;;;9.30;1.70;;;11.50;86.10;;;;;;5033318;28;20107;-78
2021/10/22 10:40:25;;;;;;;5.53;1.30;;;11.50;87.00;;;;;;5031141;28;20036;-79
2021/10/22 10:42:55;;;;;;;5.25;1.05;;;11.50;86.80;;;;;;5030768;28;20033;-79
2021/10/22 10:45:24;;;;;;;8.05;1.50;;;11.60;86.60;;;;;;5030837;28;20056;-79
2021/10/22 10:47:50;;;;;;;7.22;1.50;;;11.70;86.60;;;;;;5030110;28;20104;-80
2021/10/22 10:50:19;;;;;;;6.40;1.42;;;11.60;86.50;;;;;;5029496;28;20029;-82
2021/10/22 10:52:46;;;;;;;8.02;1.33;;;11.50;86.40;;;;;;5029674;28;20037;-80
2021/10/22 10:55:32;;;;;;;5.03;1.17;;;11.50;86.20;;;;;;5031190;28;20030;-80
2021/10/22 10:58:01;;;;;;;4.80;1.55;;;11.60;86.50;;;;;;5029819;28;20036;-79
2021/10/22 11:00:38;;;;;;;5.35;1.20;;;11.60;86.80;;;;;;5029321;28;20564;-79
2021/10/22 11:03:04;;;;;;;4.25;1.05;;;11.70;87.10;;;;;;5030078;28;20021;-78
2021/10/22 11:05:46;;;;;;;7.00;1.55;;;11.70;86.20;;;;;;5030484;28;20022;-79
2021/10/22 11:08:13;;;;;;;10.02;1.75;;;11.80;87.20;;;;;;5028694;28;20442;-78
2021/10/22 11:11:06;;;;;;;8.40;1.35;;;12.00;85.80;;;;;;5031011;28;20032;-78
2021/10/22 11:13:56;;;;;;;7.03;1.55;;;12.10;84.90;;;;;;5030513;28;20037;-79
2021/10/22 11:16:22;;;;;;;3.88;1.13;;;12.20;85.50;;;;;;5029201;28;20025;-78
2021/10/22 11:18:52;;;;;;;3.83;1.48;;;12.10;85.30;;;;;;5028575;28;20381;-79
2021/10/22 11:21:18;;;;;;;4.93;1.20;;;12.10;85.90;;;;;;5034633;28;20363;-80
2021/10/22 11:23:43;;;;;;;4.28;1.13;;;12.00;85.20;;;;;;5050108;28;20112;-79
2021/10/22 11:26:19;;;;;;;5.07;1.52;;;12.00;85.80;;;;;;5049504;28;20425;-80
2021/10/22 11:29:15;;;;;;;7.40;1.38;;;11.90;85.20;;;;;;5049391;28;20029;-79
2021/10/22 11:31:50;;;;;;;5.72;1.50;;;11.80;85.70;;;;;;5050735;28;20053;-79
2021/10/22 11:34:19;;;;;;;9.10;1.83;;;11.80;86.10;;;;;;5048785;28;20535;-80
2021/10/22 11:37:02;;;;;;;4.65;1.35;;;11.70;85.30;;;;;;5049846;28;20032;-79
2021/10/22 11:39:29;;;;;;;;;;;11.70;86.00;;;;;;5049584;28;20548;-79
2021/10/22 11:42:07;;;;;;;3.20;1.30;;;11.60;86.10;;;;;;5049710;28;19905;-79
2021/10/22 11:44:59;;;;;;;2.92;1.10;;;11.70;86.40;;;;;;5049650;28;20377;-79
2021/10/22 11:47:35;;;;;;;2.88;1.17;;;11.70;86.80;;;;;;5050129;28;20075;-79
2021/10/22 11:50:17;;;;;;;5.18;0.98;;;11.70;86.40;;;;;;5049595;28;20033;-78
2021/10/22 11:52:43;;;;;;;6.10;1.77;;;11.80;86.10;;;;;;5049963;28;20033;-79
2021/10/22 11:55:09;;;;;;;3.72;1.05;;;11.80;85.40;;;;;;5049552;28;20267;-80
2021/10/22 11:57:35;;;;;;;3.88;1.10;;;11.90;86.30;;;;;;5049925;28;20037;-81
2021/10/22 12:00:03;;;;;;;7.68;1.98;;;11.90;86.40;;;;;;5049367;28;20033;-80
2021/10/22 12:02:29;;;;;;;6.03;1.65;;;12.00;85.80;;;;;;5048757;28;20033;-81
2021/10/22 12:05:00;;;;;;;5.40;0.98;;;11.80;86.00;;;;;;5049543;28;20508;-79
2021/10/22 12:07:28;;;;;;;3.47;1.08;;;11.80;86.40;;;;;;5050217;28;20021;-80
2021/10/22 12:09:55;;;;;;;6.20;0.93;;;11.90;86.40;;;;;;5050395;28;20040;-82
2021/10/22 12:12:22;;;;;;;7.60;1.15;;;11.80;86.00;;;;;;5049060;28;20037;-78
2021/10/22 12:14:49;;;;;;;2.58;0.93;;;11.90;85.50;;;;;;5049463;28;20040;-79
2021/10/22 12:17:20;;;;;;;2.97;0.93;;;11.90;86.00;;;;;;5049622;28;20061;-79
2021/10/22 12:19:47;;;;;;;3.92;1.35;;;12.00;85.30;;;;;;5048801;28;20056;-79
2021/10/22 12:22:14;;;;;;;8.52;1.35;;;12.00;85.20;;;;;;5048777;28;20079;-79
2021/10/22 12:24:46;;;;;;;3.05;1.10;;;12.00;85.20;;;;;;5049112;28;20056;-78
2021/10/22 12:27:12;;;;;;;5.88;0.98;;;12.10;85.40;;;;;;5048253;28;20025;-79
2021/10/22 12:29:58;;;;;;;6.10;1.05;;;12.10;85.90;;;;;;5047995;28;20029;-80
2021/10/22 12:32:38;;;;;;;5.97;1.38;;;12.20;85.20;;;;;;5049027;28;20025;-81
2021/10/22 12:35:29;;;;;;;4.03;1.10;;;12.20;84.30;;;;;;5048885;28;20029;-79
2021/10/22 12:38:01;;;;;;;4.00;1.33;;;12.30;85.20;;;;;;5048048;28;20088;-80
2021/10/22 12:40:33;;;;;;;8.20;1.77;;;12.40;84.60;;;;;;5028393;28;20872;-80
2021/10/22 12:43:07;;;;;;;3.80;1.10;;;12.40;84.10;;;;;;5029269;28;20063;-79
2021/10/22 12:45:38;;;;;;;4.25;1.02;;;12.40;84.30;;;;;;5044308;28;20025;-79
2021/10/22 12:48:07;;;;;;;3.33;0.88;;;12.40;84.40;;;;;;5028706;28;20041;-79
2021/10/22 12:50:35;;;;;;;2.92;1.02;;;12.30;84.20;;;;;;5028908;28;20092;-82
2021/10/22 12:53:05;;;;;;;3.97;0.98;;;12.30;84.20;;;;;;5028947;28;20378;-79
2021/10/22 12:55:31;;;;;;;5.82;0.80;;;12.30;85.20;;;;;;5029011;28;20036;-80
2021/10/22 12:58:20;;;;;;;3.38;0.93;;;12.30;85.40;;;;;;5026706;28;20112;-80
2021/10/22 13:01:11;;;;;;;3.10;1.00;;;12.30;84.60;;;;;;5029306;28;20033;-80
2021/10/22 13:03:38;;;;;;;3.85;1.10;;;12.30;84.70;;;;;;5027953;28;20398;-79
2021/10/22 13:09:00;;;;;;;4.47;1.05;;;12.50;84.30;;;;;;5028363;28;20041;-79